KFAF/FAF METAR and TAF weather

Enter ICAO airport designator
Station Type Date Time Source
KFAF METAR 2020/02/28 07:56 UTC NOAA

KFAF 280756Z AUTO 29007KT 10SM CLR 02/M09 A3002 RMK AO2 SLP169 T00171093 $


Station Type Date Time Source
KFAF Decoded METAR 2020/02/28 07:56 UTC NOAA

Fort Eustis / Felker, VA, United States (KFAF) 37-08N 076-37W
Feb 28, 2020 - 02:56 AM EST / 2020.02.28 0756 UTC
Wind: from the WNW (290 degrees) at 8 MPH (7 KT):0
Visibility: 10 mile(s):0
Sky conditions: clear
Temperature: 35.1 F (1.7 C)
Dew Point: 15.3 F (-9.3 C)
Relative Humidity: 43%
Pressure (altimeter): 30.02 in. Hg (1016 hPa)
ob: KFAF 280756Z AUTO 29007KT 10SM CLR 02/M09 A3002 RMK AO2 SLP169 T00171093
cycle: 8

Station Type Date Time Source
KFAF TAF 2020/02/27 19:30 UTC NOAA

TAF KFAF 271900Z 2719/2901 28020G25KT 9999 FEW060 WS020/28030KT QNH2984INS
BECMG 2721/2722 27012KT 9999 SKC WS020/28030KT QNH2988INS
BECMG 2816/2817 25015G25KT 9999 BKN045 QNH2997INS TX10/2819Z TN01/2808Z LAST NO
AMDS AFT 2804 NEXT 2811

Example: see airport list